Time;durP1;ratioP1;P1;durP2;ratioP2;P2;SDS_P1;SDS_P2;PMS_P1;PMS_P2;Temp;Humidity;BMP_temperature;BMP_pressure;BME280_temperature;BME280_humidity;BME280_pressure;Samples;Min_cycle;Max_cycle;Signal;HPM_P1;HPM_P2
2022/12/30 00:00:25;;;;;;;;;;;;;;;8.45;100.00;99425.13;4998838;28;19922;-85
2022/12/30 00:02:50;;;;;;;;;;;;;;;8.46;100.00;99427.72;5007056;28;19922;-83
2022/12/30 00:05:16;;;;;;;;;;;;;;;8.47;100.00;99432.09;5013610;28;19917;-85
2022/12/30 00:07:46;;;;;;;;;;;;;;;8.47;100.00;99432.09;5007762;28;19928;-88
2022/12/30 00:10:11;;;;;;;;;;;;;;;8.48;100.00;99433.78;5010287;28;19922;-84
2022/12/30 00:35:30;;;;;;;;;;;;;;;8.51;100.00;99422.25;4994646;28;19968;-86
2022/12/30 00:37:56;;;;;;;;;;;;;;;8.51;100.00;99425.75;5011850;28;19921;-86
2022/12/30 00:40:21;;;;;;;;;;;;;;;8.51;100.00;99427.53;5008433;28;19928;-83
2022/12/30 00:45:30;;;;;;;;;;;;;;;8.52;100.00;99431.88;5007486;28;19967;-85
2022/12/30 00:47:58;;;;;;;;;;;;;;;8.51;100.00;99438.09;5008199;28;19925;-87
2022/12/30 00:56:09;;;;;;;;;;;;;;;8.51;100.00;99444.22;4994263;28;19980;-82
2022/12/30 00:58:35;;;;;;;;;;;;;;;8.52;100.00;99451.25;4994417;28;20468;-83
2022/12/30 01:01:00;;;;;;;;;;;;;;;8.50;100.00;99447.81;4994525;28;20009;-82
2022/12/30 01:03:25;;;;;;;;;;;;;;;8.51;100.00;99457.44;4994238;28;20285;-84
2022/12/30 01:05:51;;;;;;;;;;;;;;;8.52;100.00;99448.59;4994331;28;20027;-82
2022/12/30 01:08:16;;;;;;;;;;;;;;;8.52;100.00;99439.78;4994280;28;20020;-83
2022/12/30 01:10:41;;;;;;;;;;;;;;;8.54;100.00;99448.53;4992801;28;19918;-81
2022/12/30 01:13:07;;;;;;;;;;;;;;;8.53;100.00;99447.66;4994245;28;19918;-86
2022/12/30 01:15:32;;;;;;;;;;;;;;;8.53;100.00;99452.94;4993776;28;19917;-88
2022/12/30 01:17:58;;;;;;;;;;;;;;;8.52;100.00;99455.63;5017901;28;19944;-84
2022/12/30 01:20:23;;;;;;;;;;;;;;;8.53;100.00;99458.22;5033562;28;20292;-84
2022/12/30 01:22:48;;;;;;;;;;;;;;;8.53;100.00;99457.38;5022235;28;19964;-84
2022/12/30 01:25:13;;;;;;;;;;;;;;;8.52;100.00;99459.16;5009074;28;19925;-85
2022/12/30 01:27:38;;;;;;;;;;;;;;;8.53;100.00;99452.09;4993067;28;19963;-83
2022/12/30 01:30:04;;;;;;;;;;;;;;;8.52;100.00;99451.25;5009200;28;19917;-85
2022/12/30 01:32:30;;;;;;;;;;;;;;;8.52;100.00;99451.25;5009040;28;19968;-86
2022/12/30 01:34:55;;;;;;;;;;;;;;;8.51;100.00;99454.78;5007218;28;19914;-84
2022/12/30 01:37:21;;;;;;;;;;;;;;;8.53;100.00;99458.22;4998760;28;19928;-85
2022/12/30 01:39:46;;;;;;;;;;;;;;;8.54;100.00;99459.09;4992894;28;19914;-83
2022/12/30 01:42:28;;;;;;;;;;;;;;;8.52;100.00;99461.81;4997835;28;19940;-82
2022/12/30 03:11:22;;;;;;;;;;;;;;;8.63;100.00;99431.44;5034974;28;19983;-92
2022/12/30 03:13:55;;;;;;;;;;;;;;;8.64;100.00;99435.81;5037026;28;19925;-96
2022/12/30 03:16:34;;;;;;;;;;;;;;;8.64;100.00;99439.31;5037786;28;20351;-96
2022/12/30 03:19:08;;;;;;;;;;;;;;;8.66;100.00;99434.84;5039024;28;19925;-93
2022/12/30 03:21:36;;;;;;;;;;;;;;;8.65;100.00;99434.91;5017430;28;19921;-95
2022/12/30 03:27:05;;;;;;;;;;;;;;;8.66;100.00;99431.31;5036371;28;19971;-92
2022/12/30 03:29:41;;;;;;;;;;;;;;;8.68;100.00;99429.47;5036005;28;19917;-92
2022/12/30 03:32:09;;;;;;;;;;;;;;;8.69;100.00;99436.50;5038802;28;19999;-92
2022/12/30 03:34:35;;;;;;;;;;;;;;;8.68;100.00;99440.03;5018105;28;19927;-92
2022/12/30 03:37:13;;;;;;;;;;;;;;;8.69;100.00;99441.78;5034610;28;19917;-91
2022/12/30 03:39:45;;;;;;;;;;;;;;;8.68;100.00;99455.88;5036338;28;19924;-92
2022/12/30 03:42:11;;;;;;;;;;;;;;;8.71;100.00;99446.09;5036189;28;19917;-87
2022/12/30 03:44:40;;;;;;;;;;;;;;;8.68;100.00;99443.56;5035299;28;20372;-87
2022/12/30 03:47:10;;;;;;;;;;;;;;;8.69;100.00;99447.06;5035171;28;19987;-92
2022/12/30 03:49:38;;;;;;;;;;;;;;;8.70;100.00;99438.22;5035168;28;19924;-89
2022/12/30 03:52:03;;;;;;;;;;;;;;;8.70;100.00;99438.22;5033970;28;19925;-89
2022/12/30 03:54:28;;;;;;;;;;;;;;;8.69;100.00;99441.78;5017248;28;19918;-89
2022/12/30 03:56:54;;;;;;;;;;;;;;;8.68;100.00;99440.91;5035164;28;19924;-90
2022/12/30 03:59:19;;;;;;;;;;;;;;;8.70;100.00;99443.50;5034983;28;19917;-91
2022/12/30 04:01:44;;;;;;;;;;;;;;;8.70;100.00;99448.78;5034911;28;19918;-89
2022/12/30 04:04:09;;;;;;;;;;;;;;;8.70;100.00;99443.50;5034978;28;20430;-90
2022/12/30 04:06:34;;;;;;;;;;;;;;;8.71;100.00;99445.19;5033546;28;20409;-90
2022/12/30 04:09:00;;;;;;;;;;;;;;;8.72;100.00;99452.22;5034889;28;19923;-90
2022/12/30 04:11:25;;;;;;;;;;;;;;;8.71;100.00;99451.38;5034652;28;19921;-88
2022/12/30 04:13:51;;;;;;;;;;;;;;;8.72;100.00;99447.78;5034703;28;19939;-89
2022/12/30 04:16:17;;;;;;;;;;;;;;;8.73;100.00;99449.50;5034673;28;19917;-90
2022/12/30 04:18:42;;;;;;;;;;;;;;;8.72;100.00;99447.78;5034541;28;19971;-90
2022/12/30 04:21:07;;;;;;;;;;;;;;;8.73;100.00;99446.88;5034665;28;19956;-91
2022/12/30 04:23:33;;;;;;;;;;;;;;;8.72;100.00;99452.22;5033204;28;19918;-88
2022/12/30 04:25:58;;;;;;;;;;;;;;;8.74;100.00;99450.34;5034485;28;19924;-90
2022/12/30 04:28:23;;;;;;;;;;;;;;;8.73;100.00;99448.66;5033834;28;19921;-89
2022/12/30 04:30:50;;;;;;;;;;;;;;;8.72;100.00;99444.28;5034146;28;19917;-92
2022/12/30 04:33:15;;;;;;;;;;;;;;;8.73;100.00;99443.38;5017709;28;19921;-88
2022/12/30 04:35:40;;;;;;;;;;;;;;;8.72;100.00;99441.66;5036685;28;19923;-96
2022/12/30 04:38:05;;;;;;;;;;;;;;;8.72;100.00;99439.84;5034395;28;19917;-88
2022/12/30 04:40:30;;;;;;;;;;;;;;;8.73;100.00;99440.75;5035761;28;19917;-90
2022/12/30 04:42:56;;;;;;;;;;;;;;;8.75;100.00;99438.03;5035785;28;19921;-95
2022/12/30 04:45:21;;;;;;;;;;;;;;;8.73;100.00;99451.31;5035567;28;20336;-90
2022/12/30 04:47:46;;;;;;;;;;;;;;;8.73;100.00;99448.66;5035476;28;20364;-95
2022/12/30 08:53:42;;;;;;;;;;;;;;;6.82;100.00;99292.31;5069376;28;19944;-84
2022/12/30 08:56:07;;;;;;;;;;;;;;;6.75;100.00;99291.69;5040351;28;20383;-88
2022/12/30 08:58:33;;;;;;;;;;;;;;;6.72;100.00;99276.84;5037417;28;19917;-88
2022/12/30 09:00:59;;;;;;;;;;;;;;;6.68;100.00;99283.09;5041185;28;19936;-86
2022/12/30 09:03:24;;;;;;;;;;;;;;;8.44;100.00;99265.88;5063308;28;19920;-85
2022/12/30 09:05:53;;;;;;;;;;;;;;;7.33;100.00;99256.22;5054680;28;20003;-87
2022/12/30 09:08:18;;;;;;;;;;;;;;;6.92;100.00;99246.28;5045869;28;19917;-87
2022/12/30 09:10:44;;;;;;;;;;;;;;;6.82;100.00;99243.13;5042984;28;19921;-90
2022/12/30 09:13:09;;;;;;;;;;;;;;;6.68;100.00;99251.53;5041345;28;19923;-89
2022/12/30 09:15:34;;;;;;;;;;;;;;;6.64;100.00;99249.94;5040743;28;19921;-87
2022/12/30 09:17:59;;;;;;;;;;;;;;;6.67;100.00;99249.81;5035566;28;20003;-85
2022/12/30 09:20:25;;;;;;;;;;;;;;;6.57;100.00;99255.44;5043272;28;20015;-83
2022/12/30 09:22:50;;;;;;;;;;;;;;;6.47;100.00;99247.03;5056510;28;19920;-86
2022/12/30 09:25:16;;;;;;;;;;;;;;;6.66;100.00;99249.88;5058482;28;19960;-81
2022/12/30 09:27:41;;;;;;;;;;;;;;;6.97;100.00;99246.97;5055149;28;20357;-81
2022/12/30 09:30:06;;;;;;;;;;;;;;;6.75;100.00;99240.78;5048535;28;20360;-86
2022/12/30 09:32:32;;;;;;;;;;;;;;;6.55;100.00;99239.72;5044552;28;19975;-87
2022/12/30 09:34:57;;;;;;;;;;;;;;;6.51;100.00;99241.59;5055574;28;19920;-88
2022/12/30 09:37:22;;;;;;;;;;;;;;;6.43;100.00;99248.91;5059889;28;19921;-86
2022/12/30 09:39:48;;;;;;;;;;;;;;;6.38;100.00;99256.06;5051713;28;19928;-84
2022/12/30 09:45:08;;;;;;;;;;;;;;;6.31;100.00;99249.31;5053089;28;20307;-84
2022/12/30 09:47:37;;;;;;;;;;;;;;;6.26;100.00;99248.63;5052729;28;19916;-85
2022/12/30 09:50:02;;;;;;;;;;;;;;;6.22;100.00;99253.09;5051813;28;19921;-84
2022/12/30 09:52:38;;;;;;;;;;;;;;;6.21;100.00;99245.25;5020789;28;19921;-88
2022/12/30 09:55:13;;;;;;;;;;;;;;;6.16;100.00;99250.69;5012075;28;20423;-83
2022/12/30 09:57:39;;;;;;;;;;;;;;;6.10;100.00;99241.22;5012229;28;20388;-84
2022/12/30 10:00:14;;;;;;;;;;;;;;;6.09;100.00;99238.66;5013446;28;19922;-85
2022/12/30 10:02:47;;;;;;;;;;;;;;;6.05;100.00;99247.53;5012379;28;19988;-83
2022/12/30 10:05:12;;;;;;;;;;;;;;;6.03;100.00;99231.84;5012038;28;20028;-87
2022/12/30 10:07:49;;;;;;;;;;;;;;;5.96;100.00;99231.16;5012054;28;20384;-84
2022/12/30 10:10:37;;;;;;;;;;;;;;;5.86;100.00;99232.34;5013232;28;20009;-83
2022/12/30 10:13:20;;;;;;;;;;;;;;;5.83;100.00;99222.78;5012162;28;19929;-87
2022/12/30 10:15:55;;;;;;;;;;;;;;;6.19;100.00;99224.28;5009850;28;19917;-83
2022/12/30 10:18:23;;;;;;;;;;;;;;;6.45;100.00;99214.63;5012961;28;20380;-84
2022/12/30 10:20:52;;;;;;;;;;;;;;;6.54;100.00;99209.03;5010652;28;20392;-84
2022/12/30 10:23:24;;;;;;;;;;;;;;;6.59;100.00;99209.75;5013046;28;19917;-86
2022/12/30 10:26:08;;;;;;;;;;;;;;;6.61;100.00;99202.66;5007482;28;19917;-84
2022/12/30 10:28:37;;;;;;;;;;;;;;;6.62;100.00;99180.69;5016036;28;20291;-85
2022/12/30 10:31:07;;;;;;;;;;;;;;;6.62;100.00;99162.25;5015573;28;20445;-84
2022/12/30 10:33:33;;;;;;;;;;;;;;;6.63;100.00;99165.72;5016915;28;19928;-84
2022/12/30 10:36:03;;;;;;;;;;;;;;;6.52;100.00;99161.69;5015635;28;19918;-85
2022/12/30 10:38:30;;;;;;;;;;;;;;;6.44;100.00;99170.81;5016808;28;19944;-85
2022/12/30 10:41:08;;;;;;;;;;;;;;;6.40;100.00;99156.91;5016728;28;19964;-84
2022/12/30 10:43:45;;;;;;;;;;;;;;;6.45;100.00;99151.47;5016487;28;19917;-86
2022/12/30 10:46:24;;;;;;;;;;;;;;;6.41;100.00;99150.72;5016816;28;19917;-86
2022/12/30 10:49:01;;;;;;;;;;;;;;;6.40;100.00;99148.13;5015490;28;19918;-87
2022/12/30 10:51:27;;;;;;;;;;;;;;;6.36;100.00;99137.72;5019412;28;19935;-86
2022/12/30 10:53:53;;;;;;;;;;;;;;;6.45;100.00;99140.94;5038372;28;19917;-84
2022/12/30 10:56:26;;;;;;;;;;;;;;;6.53;100.00;99123.09;5038246;28;19916;-86
2022/12/30 10:58:53;;;;;;;;;;;;;;;6.62;100.00;99122.75;5056296;28;19916;-88
2022/12/30 11:01:21;;;;;;;;;;;;;;;8.22;100.00;99106.63;5056103;28;20008;-85
2022/12/30 11:03:58;;;;;;;;;;;;;;;8.46;100.00;99105.59;5056147;28;20325;-87
2022/12/30 11:06:31;;;;;;;;;;;;;;;8.61;100.00;99100.56;5036682;28;19987;-83
2022/12/30 11:09:11;;;;;;;;;;;;;;;8.71;100.00;99096.53;5038034;28;20386;-83
2022/12/30 11:14:44;;;;;;;;;;;;;;;9.22;100.00;99078.28;5055905;28;19970;-86
2022/12/30 11:17:09;;;;;;;;;;;;;;;9.22;100.00;99075.66;5037933;28;19971;-81
2022/12/30 11:19:35;;;;;;;;;;;;;;;9.35;100.00;99066.22;5037799;28;19920;-82
2022/12/30 11:22:02;;;;;;;;;;;;;;;9.45;100.00;99066.59;5036758;28;19924;-82
2022/12/30 11:24:27;;;;;;;;;;;;;;;9.30;100.00;99067.34;5057077;28;20012;-85
2022/12/30 11:26:52;;;;;;;;;;;;;;;9.04;100.00;99050.97;5059693;28;20455;-88
2022/12/30 11:29:20;;;;;;;;;;;;;;;9.00;100.00;99049.41;5052201;28;19921;-80
2022/12/30 11:31:47;;;;;;;;;;;;;;;9.43;100.00;99044.69;5061100;28;19981;-81
2022/12/30 11:34:28;;;;;;;;;;;;;;;9.35;100.00;99030.97;5063209;28;19927;-82
2022/12/30 11:36:53;;;;;;;;;;;;;;;8.93;100.00;99027.72;5058541;28;20015;-90
2022/12/30 11:39:22;;;;;;;;;;;;;;;8.32;100.00;99040.19;5058713;28;20016;-88
2022/12/30 11:41:48;;;;;;;;;;;;;;;8.05;100.00;99023.81;5064973;28;19940;-93
2022/12/30 11:44:14;;;;;;;;;;;;;;;7.83;100.00;99026.53;5038074;28;19924;-93
2022/12/30 11:46:43;;;;;;;;;;;;;;;7.69;100.00;99011.34;5037933;28;20000;-92
2022/12/30 11:49:26;;;;;;;;;;;;;;;7.55;100.00;99006.66;5037995;28;19963;-91
2022/12/30 11:51:52;;;;;;;;;;;;;;;7.42;100.00;99006.31;5036774;28;19994;-87
2022/12/30 11:54:20;;;;;;;;;;;;;;;7.35;100.00;98991.66;5057688;28;19920;-92
2022/12/30 11:56:52;;;;;;;;;;;;;;;7.35;100.00;98996.94;5051704;28;19921;-85
2022/12/30 11:59:19;;;;;;;;;;;;;;;7.09;100.00;98985.72;5037404;28;19939;-87
2022/12/30 12:01:47;;;;;;;;;;;;;;;7.02;100.00;98976.38;5037458;28;19924;-86
2022/12/30 12:04:30;;;;;;;;;;;;;;;6.97;100.00;98972.19;5041892;28;19921;-87
2022/12/30 12:06:56;;;;;;;;;;;;;;;7.12;100.00;98976.84;5033995;28;19925;-91
2022/12/30 12:09:24;;;;;;;;;;;;;;;7.15;100.00;98954.75;5036955;28;19970;-88
2022/12/30 12:11:49;;;;;;;;;;;;;;;7.08;100.00;98968.22;5036830;28;20403;-85
2022/12/30 12:14:25;;;;;;;;;;;;;;;7.01;100.00;98953.56;5054711;28;19921;-88
2022/12/30 12:16:57;;;;;;;;;;;;;;;6.98;100.00;98951.06;5054700;28;19916;-88
2022/12/30 12:19:42;;;;;;;;;;;;;;;7.01;100.00;98940.41;5036559;28;20287;-86
2022/12/30 12:22:14;;;;;;;;;;;;;;;7.00;100.00;98935.19;5035371;28;19924;-86
2022/12/30 12:24:42;;;;;;;;;;;;;;;6.93;100.00;98942.50;5034880;28;19971;-84
2022/12/30 12:27:13;;;;;;;;;;;;;;;6.98;100.00;98927.34;5034992;28;19916;-83
2022/12/30 12:29:39;;;;;;;;;;;;;;;6.98;100.00;98923.88;5054384;28;19916;-83
2022/12/30 12:32:07;;;;;;;;;;;;;;;6.86;100.00;98922.59;5036402;28;19916;-83
2022/12/30 12:34:51;;;;;;;;;;;;;;;6.88;100.00;98908.44;5054174;28;19916;-83
2022/12/30 12:37:25;;;;;;;;;;;;;;;6.83;100.00;98915.69;5054235;28;20279;-85
2022/12/30 12:39:50;;;;;;;;;;;;;;;6.77;100.00;98902.78;5036314;28;20394;-83
2022/12/30 12:42:19;;;;;;;;;;;;;;;6.81;100.00;98901.75;5036084;28;19917;-84
2022/12/30 12:45:04;;;;;;;;;;;;;;;6.75;100.00;98903.75;5035804;28;21256;-84
2022/12/30 12:47:39;;;;;;;;;;;;;;;6.73;100.00;98888.00;5036150;28;19921;-84
2022/12/30 12:50:17;;;;;;;;;;;;;;;6.68;100.00;98879.47;5034043;28;20059;-84
2022/12/30 12:52:42;;;;;;;;;;;;;;;6.64;100.00;98884.00;5035728;28;20009;-85
2022/12/30 12:55:16;;;;;;;;;;;;;;;6.59;100.00;98877.19;5053855;28;19964;-85
2022/12/30 12:58:05;;;;;;;;;;;;;;;6.67;100.00;98870.72;5035980;28;20394;-89
2022/12/30 13:00:53;;;;;;;;;;;;;;;6.53;100.00;98860.75;5030460;28;19917;-83
2022/12/30 13:03:31;;;;;;;;;;;;;;;6.57;100.00;98856.19;5030365;28;19916;-83
2022/12/30 13:06:05;;;;;;;;;;;;;;;6.55;100.00;98852.78;5052515;28;20276;-86
2022/12/30 13:08:37;;;;;;;;;;;;;;;6.51;100.00;98846.81;5035666;28;19916;-84
2022/12/30 13:11:21;;;;;;;;;;;;;;;6.49;100.00;98832.84;5036173;28;20253;-84
2022/12/30 13:13:49;;;;;;;;;;;;;;;6.55;100.00;98808.88;5053565;28;19964;-86
2022/12/30 13:16:19;;;;;;;;;;;;;;;6.50;100.00;98797.69;5035554;28;19924;-88
2022/12/30 13:18:46;;;;;;;;;;;;;;;6.50;100.00;98787.19;5035490;28;20372;-86
2022/12/30 13:21:12;;;;;;;;;;;;;;;6.42;100.00;98793.69;5034198;28;20003;-86
2022/12/30 13:23:42;;;;;;;;;;;;;;;6.44;100.00;98799.75;5053115;28;19917;-83
2022/12/30 13:26:07;;;;;;;;;;;;;;;6.45;100.00;98790.94;5053447;28;19920;-86
2022/12/30 13:28:34;;;;;;;;;;;;;;;6.39;100.00;98791.19;5035430;28;19923;-84
2022/12/30 13:31:12;;;;;;;;;;;;;;;6.72;100.00;98786.28;5035219;28;20004;-80
2022/12/30 13:34:07;;;;;;;;;;;;;;;7.04;100.00;98798.03;5053085;28;19916;-83
2022/12/30 13:36:50;;;;;;;;;;;;;;;6.62;100.00;98780.56;4998057;28;19918;-87
2022/12/30 13:39:15;;;;;;;;;;;;;;;6.49;100.00;98774.97;5053084;28;19962;-83
2022/12/30 13:41:59;;;;;;;;;;;;;;;6.49;100.00;98774.06;5035301;28;19917;-83
2022/12/30 13:44:29;;;;;;;;;;;;;;;6.46;100.00;98764.56;5034899;28;19925;-84
2022/12/30 13:46:55;;;;;;;;;;;;;;;6.41;100.00;98755.13;5052389;28;20347;-84
2022/12/30 13:49:25;;;;;;;;;;;;;;;6.36;100.00;98758.81;5035013;28;19960;-84
2022/12/30 13:51:58;;;;;;;;;;;;;;;6.36;100.00;98753.53;5033894;28;19921;-84
2022/12/30 13:54:24;;;;;;;;;;;;;;;6.32;100.00;98756.38;5052937;28;19920;-85
2022/12/30 13:56:50;;;;;;;;;;;;;;;6.26;100.00;98764.53;5035033;28;19917;-85
2022/12/30 13:59:26;;;;;;;;;;;;;;;6.26;100.00;98752.22;5035027;28;19968;-83
2022/12/30 14:02:11;;;;;;;;;;;;;;;6.30;100.00;98742.41;5036917;28;20035;-86
2022/12/30 14:04:46;;;;;;;;;;;;;;;6.26;100.00;98746.13;5038819;28;19924;-88
2022/12/30 14:07:30;;;;;;;;;;;;;;;6.22;100.00;98745.38;5056003;28;20327;-85
2022/12/30 14:10:14;;;;;;;;;;;;;;;6.22;100.00;98745.38;5038633;28;20303;-85
2022/12/30 14:12:39;;;;;;;;;;;;;;;6.21;100.00;98741.03;5038785;28;20295;-87
2022/12/30 14:15:23;;;;;;;;;;;;;;;6.17;100.00;98729.81;5037110;28;20011;-84
2022/12/30 14:17:48;;;;;;;;;;;;;;;6.23;100.00;98738.34;5038824;28;20023;-84
2022/12/30 14:20:29;;;;;;;;;;;;;;;6.19;100.00;98729.75;5055386;28;20000;-84
2022/12/30 14:23:18;;;;;;;;;;;;;;;6.16;100.00;98732.50;5038644;28;19927;-83
2022/12/30 14:25:43;;;;;;;;;;;;;;;6.13;100.00;98732.63;5033074;28;19916;-86
2022/12/30 14:28:19;;;;;;;;;;;;;;;6.14;100.00;98722.03;5056521;28;19970;-86
2022/12/30 14:30:45;;;;;;;;;;;;;;;6.17;100.00;98732.44;5038470;28;20016;-84
2022/12/30 14:33:14;;;;;;;;;;;;;;;6.17;100.00;98732.44;5038643;28;19913;-86
2022/12/30 14:35:50;;;;;;;;;;;;;;;6.07;100.00;98740.75;5055127;28;19916;-88
2022/12/30 14:38:24;;;;;;;;;;;;;;;6.13;100.00;98733.47;5038410;28;19970;-85
2022/12/30 14:40:56;;;;;;;;;;;;;;;6.13;100.00;98725.56;5038330;28;19975;-86
2022/12/30 14:43:21;;;;;;;;;;;;;;;6.08;100.00;98716.16;5037884;28;20007;-86
2022/12/30 14:45:47;;;;;;;;;;;;;;;6.07;100.00;98709.19;5056094;28;20366;-90
2022/12/30 14:48:12;;;;;;;;;;;;;;;6.06;100.00;98705.69;5036618;28;19913;-86
2022/12/30 14:50:38;;;;;;;;;;;;;;;6.07;100.00;98703.94;5037029;28;19939;-86
2022/12/30 14:53:05;;;;;;;;;;;;;;;6.06;100.00;98691.69;5055968;28;19956;-86
2022/12/30 14:55:41;;;;;;;;;;;;;;;6.05;100.00;98697.88;5038119;28;19933;-87
2022/12/30 14:58:16;;;;;;;;;;;;;;;6.03;100.00;98702.34;5038229;28;19917;-88
2022/12/30 15:00:46;;;;;;;;;;;;;;;6.04;100.00;98698.81;5038048;28;20007;-88
2022/12/30 15:03:13;;;;;;;;;;;;;;;6.06;100.00;98696.97;5038194;28;19917;-87
2022/12/30 15:05:56;;;;;;;;;;;;;;;6.04;100.00;98681.25;5036675;28;19969;-86
2022/12/30 15:08:21;;;;;;;;;;;;;;;6.07;100.00;98678.50;5037908;28;19916;-86
2022/12/30 15:10:58;;;;;;;;;;;;;;;6.04;100.00;98678.63;5055740;28;19917;-87
2022/12/30 15:13:24;;;;;;;;;;;;;;;6.07;100.00;98682.91;5036798;28;19924;-86
2022/12/30 15:15:54;;;;;;;;;;;;;;;6.08;100.00;98676.69;5037923;28;19917;-86
2022/12/30 15:18:25;;;;;;;;;;;;;;;6.09;100.00;98673.16;5037718;28;20393;-87
2022/12/30 15:20:50;;;;;;;;;;;;;;;6.09;100.00;98676.63;5036145;28;20266;-89
2022/12/30 15:23:17;;;;;;;;;;;;;;;6.17;100.00;98666.69;5055484;28;19917;-88
2022/12/30 15:25:42;;;;;;;;;;;;;;;6.09;100.00;98670.53;5055293;28;19985;-85
2022/12/30 15:28:08;;;;;;;;;;;;;;;6.07;100.00;98685.53;5037534;28;20423;-85
2022/12/30 15:30:33;;;;;;;;;;;;;;;6.15;100.00;98683.44;5037833;28;20388;-86
2022/12/30 15:33:06;;;;;;;;;;;;;;;6.12;100.00;98694.06;5055223;28;19971;-85
2022/12/30 15:35:33;;;;;;;;;;;;;;;6.13;100.00;98683.50;5036418;28;19923;-90
2022/12/30 15:38:00;;;;;;;;;;;;;;;6.17;100.00;98686.84;5037238;28;19971;-83
2022/12/30 15:40:27;;;;;;;;;;;;;;;6.15;100.00;98689.53;5055272;28;19927;-88
2022/12/30 15:42:55;;;;;;;;;;;;;;;6.18;100.00;98691.19;5054909;28;19923;-87
2022/12/30 15:45:28;;;;;;;;;;;;;;;6.14;100.00;98689.59;5037275;28;19916;-86
2022/12/30 15:47:54;;;;;;;;;;;;;;;6.11;100.00;98680.09;5036969;28;19978;-85
2022/12/30 15:50:34;;;;;;;;;;;;;;;6.17;100.00;98684.22;5053518;28;19917;-88
2022/12/30 15:53:01;;;;;;;;;;;;;;;6.11;100.00;98692.34;5054747;28;19982;-83
2022/12/30 15:55:27;;;;;;;;;;;;;;;6.16;100.00;98690.41;5036684;28;19917;-87
2022/12/30 15:57:55;;;;;;;;;;;;;;;6.11;100.00;98697.63;5054904;28;19917;-87
2022/12/30 16:00:22;;;;;;;;;;;;;;;6.15;100.00;98696.59;5054756;28;19917;-88
2022/12/30 16:02:52;;;;;;;;;;;;;;;6.12;100.00;98701.97;5036394;28;19924;-90
2022/12/30 16:05:24;;;;;;;;;;;;;;;6.19;100.00;98703.44;5035828;28;19917;-86
2022/12/30 16:07:49;;;;;;;;;;;;;;;6.14;100.00;98716.78;5062705;28;20443;-85
2022/12/30 16:10:23;;;;;;;;;;;;;;;6.10;100.00;98715.19;5055063;28;20014;-86
2022/12/30 16:13:00;;;;;;;;;;;;;;;6.11;100.00;98713.41;5054152;28;19920;-85
2022/12/30 16:15:32;;;;;;;;;;;;;;;6.11;100.00;98710.75;5054290;28;19921;-84
2022/12/30 16:18:00;;;;;;;;;;;;;;;6.13;100.00;98716.84;5036071;28;19916;-86
2022/12/30 16:20:25;;;;;;;;;;;;;;;6.11;100.00;98716.91;5052044;28;20386;-85
2022/12/30 16:22:51;;;;;;;;;;;;;;;6.10;100.00;98719.59;5054776;28;19920;-87
2022/12/30 16:25:19;;;;;;;;;;;;;;;6.09;100.00;98712.63;5050425;28;19920;-85
2022/12/30 16:27:46;;;;;;;;;;;;;;;6.06;100.00;98721.47;5069927;28;19931;-85
2022/12/30 16:30:16;;;;;;;;;;;;;;;6.11;100.00;98729.19;5042578;28;19925;-84
2022/12/30 16:32:41;;;;;;;;;;;;;;;6.06;100.00;98726.72;5048261;28;19932;-85
2022/12/30 16:35:07;;;;;;;;;;;;;;;6.11;100.00;98729.19;5041532;28;20004;-88
2022/12/30 16:37:38;;;;;;;;;;;;;;;6.09;100.00;98723.13;5073940;28;19939;-82
2022/12/30 16:40:23;;;;;;;;;;;;;;;6.10;100.00;98719.59;5036261;28;20405;-85
2022/12/30 16:42:49;;;;;;;;;;;;;;;6.08;100.00;98721.41;5042851;28;19921;-91
2022/12/30 16:45:28;;;;;;;;;;;;;;;6.06;100.00;98731.16;5044799;28;19924;-89
2022/12/30 16:47:53;;;;;;;;;;;;;;;6.07;100.00;98719.72;5061237;28;19921;-88
2022/12/30 16:50:22;;;;;;;;;;;;;;;6.04;100.00;98720.69;5064377;28;19920;-91
2022/12/30 16:52:47;;;;;;;;;;;;;;;6.05;100.00;98727.69;5064019;28;19921;-88
2022/12/30 16:55:21;;;;;;;;;;;;;;;6.07;100.00;98725.81;5071116;28;20018;-93
2022/12/30 16:57:46;;;;;;;;;;;;;;;6.10;100.00;98724.84;5035445;28;19924;-84
2022/12/30 17:00:20;;;;;;;;;;;;;;;6.06;100.00;98733.78;5041771;28;19939;-87
2022/12/30 17:02:45;;;;;;;;;;;;;;;6.06;100.00;98728.53;5055350;28;19932;-88
2022/12/30 17:05:15;;;;;;;;;;;;;;;6.09;100.00;98736.28;5042490;28;19920;-85
2022/12/30 17:07:41;;;;;;;;;;;;;;;6.06;100.00;98736.41;5045163;28;19999;-85
2022/12/30 17:12:50;;;;;;;;;;;;;;;6.07;100.00;98730.25;5053761;28;19967;-86
2022/12/30 17:15:15;;;;;;;;;;;;;;;6.08;100.00;98729.31;5040729;28;20331;-87
2022/12/30 17:17:41;;;;;;;;;;;;;;;5.98;100.00;98737.59;5045177;28;19943;-87
2022/12/30 17:20:07;;;;;;;;;;;;;;;6.01;100.00;98739.22;5052695;28;19917;-91
2022/12/30 17:22:33;;;;;;;;;;;;;;;6.09;100.00;98738.91;5056959;28;19921;-87
2022/12/30 17:24:58;;;;;;;;;;;;;;;6.06;100.00;98745.16;5063369;28;20003;-88
2022/12/30 17:27:24;;;;;;;;;;;;;;;6.09;100.00;98738.91;5055049;28;19972;-84
2022/12/30 17:29:50;;;;;;;;;;;;;;;6.07;100.00;98756.53;5073968;28;19967;-85
2022/12/30 17:32:35;;;;;;;;;;;;;;;6.09;100.00;98755.53;5053916;28;19928;-87
2022/12/30 17:35:01;;;;;;;;;;;;;;;6.09;100.00;98757.31;5034163;28;19921;-88
2022/12/30 17:37:26;;;;;;;;;;;;;;;6.05;100.00;98763.63;5052597;28;19917;-84
2022/12/30 17:39:52;;;;;;;;;;;;;;;6.09;100.00;98758.16;5038660;28;19921;-84
2022/12/30 17:42:18;;;;;;;;;;;;;;;6.10;100.00;98766.94;5062820;28;19962;-85
2022/12/30 17:44:53;;;;;;;;;;;;;;;6.12;100.00;98780.88;5046319;28;20333;-85
2022/12/30 17:47:19;;;;;;;;;;;;;;;6.08;100.00;98774.88;5034311;28;20486;-87
2022/12/30 17:49:44;;;;;;;;;;;;;;;6.09;100.00;98786.25;5035135;28;20003;-86
2022/12/30 17:52:09;;;;;;;;;;;;;;;6.09;100.00;98781.00;5035099;28;19921;-87
2022/12/30 17:54:34;;;;;;;;;;;;;;;6.11;100.00;98787.03;5059841;28;19928;-83
2022/12/30 17:57:03;;;;;;;;;;;;;;;6.14;100.00;98789.53;5071238;28;20004;-89
2022/12/30 17:59:28;;;;;;;;;;;;;;;6.16;100.00;98793.00;5064697;28;20274;-88
2022/12/30 18:01:56;;;;;;;;;;;;;;;6.14;100.00;98794.81;5047866;28;19947;-91
2022/12/30 18:04:22;;;;;;;;;;;;;;;6.07;100.00;98798.63;5038678;28;20287;-85
2022/12/30 18:06:47;;;;;;;;;;;;;;;6.08;100.00;98803.81;5061616;28;19928;-88
2022/12/30 18:09:12;;;;;;;;;;;;;;;8.28;100.00;98795.81;5037274;28;19924;-81
2022/12/30 18:11:41;;;;;;;;;;;;;;;8.44;100.00;98795.94;5039602;28;19921;-87
2022/12/30 18:14:06;;;;;;;;;;;;;;;7.46;100.00;98804.91;5055012;28;19921;-85
2022/12/30 18:16:34;;;;;;;;;;;;;;;6.98;100.00;98808.00;5036642;28;20054;-89
2022/12/30 18:19:02;;;;;;;;;;;;;;;6.77;100.00;98808.00;5038648;28;19925;-86
2022/12/30 18:21:30;;;;;;;;;;;;;;;6.61;100.00;98825.38;5063608;28;19921;-88
2022/12/30 18:23:55;;;;;;;;;;;;;;;6.47;100.00;98839.09;5068782;28;19947;-88
2022/12/30 18:26:22;;;;;;;;;;;;;;;6.39;100.00;98836.75;5054691;28;20356;-85
2022/12/30 18:28:48;;;;;;;;;;;;;;;6.91;100.00;98845.13;5057031;28;20409;-82
2022/12/30 18:31:23;;;;;;;;;;;;;;;6.99;100.00;98846.56;5064202;28;19921;-88
2022/12/30 18:33:49;;;;;;;;;;;;;;;6.59;100.00;98849.13;5070799;28;19921;-92
2022/12/30 18:36:15;;;;;;;;;;;;;;;6.48;100.00;98852.19;5043249;28;20432;-86
2022/12/30 18:38:41;;;;;;;;;;;;;;;6.40;100.00;98848.13;5065121;28;19962;-87
2022/12/30 18:41:10;;;;;;;;;;;;;;;6.31;100.00;98855.50;5070033;28;19920;-85
2022/12/30 18:43:35;;;;;;;;;;;;;;;6.29;100.00;98854.72;5065454;28;19932;-87
2022/12/30 18:46:04;;;;;;;;;;;;;;;6.30;100.00;98858.19;5047715;28;19920;-87
2022/12/30 18:48:29;;;;;;;;;;;;;;;6.23;100.00;98869.88;5051457;28;19974;-85
2022/12/30 18:50:56;;;;;;;;;;;;;;;7.26;100.00;98865.59;5063220;28;19929;-85
2022/12/30 18:53:21;;;;;;;;;;;;;;;6.72;100.00;98870.53;5041402;28;20007;-87
2022/12/30 18:55:56;;;;;;;;;;;;;;;6.54;100.00;98869.50;5041001;28;20004;-87
2022/12/30 18:58:21;;;;;;;;;;;;;;;6.50;100.00;98867.91;5062354;28;19920;-85
2022/12/30 19:00:47;;;;;;;;;;;;;;;6.41;100.00;98868.28;5057993;28;19947;-83
2022/12/30 19:03:12;;;;;;;;;;;;;;;6.45;100.00;98869.88;5055908;28;20445;-89
2022/12/30 19:05:37;;;;;;;;;;;;;;;6.43;100.00;98866.44;5062035;28;19974;-84
2022/12/30 19:08:03;;;;;;;;;;;;;;;6.43;100.00;98869.06;5052789;28;19966;-84
2022/12/30 19:10:28;;;;;;;;;;;;;;;6.46;100.00;98880.34;5063776;28;19920;-85